Aviation Digital Data Service (ADDS)

Output produced by METARs form (1651 UTC 24 October 2014)
found at http://www.aviationweather.gov/adds/metars/
 
KBFD 241553Z AUTO 29008KT 10SM CLR 11/02 A3002 RMK AO2 SLP167 T01110022
KBFD 241453Z AUTO 30010KT 10SM CLR 09/02 A3002 RMK AO2 SLP170 T00940017 58002
KBFD 241353Z AUTO 33007KT 10SM CLR 08/03 A3002 RMK AO2 SLP173 T00780028
KBFD 241253Z AUTO 31007KT 10SM CLR 06/04 A3003 RMK AO2 SLP176 T00610039
KBFD 241208Z AUTO 31009KT 10SM SCT009 05/03 A3002 RMK AO2 T00500033
KBFD 241153Z AUTO 32010KT 10SM BKN009 05/03 A3002 RMK AO2 SLP174 T00500033 10056 20022 50003
KBFD 241126Z AUTO 32009KT 10SM SCT008 04/03 A3002 RMK AO2 T00440028
KBFD 241053Z AUTO 32010KT 10SM OVC008 06/04 A3003 RMK AO2 CIG 006V012 SLP174 T00560039
KBFD 240953Z AUTO 31007KT 10SM OVC006 05/03 A3002 RMK AO2 SLP172 T00500033
KBFD 240933Z AUTO 30008KT 10SM BKN006 05/03 A3002 RMK AO2 T00500033
KBFD 240924Z AUTO 29008KT 10SM SCT005 04/03 A3002 RMK AO2 T00440028
KBFD 240853Z AUTO 29005KT 10SM CLR 04/02 A3001 RMK AO2 SLP168 T00390022 51007
KBFD 240753Z AUTO 30004KT 10SM CLR 03/02 A3000 RMK AO2 SLP164 T00330017
KBFD 240653Z AUTO 31007KT 10SM CLR 05/02 A3000 RMK AO2 SLP162 T00500022
KBFD 240553Z AUTO 31006KT 10SM CLR 04/03 A2999 RMK AO2 SLP159 T00440033 10078 20044 58008
KBFD 240453Z AUTO 31006KT 10SM CLR 06/04 A3000 RMK AO2 SLP162 T00610044 401440050
KBFD 240405Z AUTO 33007KT 10SM SCT007 07/05 A3001 RMK AO2 T00670050
KBFD 240353Z AUTO 32009KT 10SM BKN007 07/06 A3001 RMK AO2 CIG 006V011 SLP167 T00720056
KBFD 240332Z AUTO 32005KT 10SM BKN009 BKN043 06/05 A3001 RMK AO2 CIG 007V011 T00610050
KBFD 240253Z AUTO 32007KT 10SM CLR 06/05 A3002 RMK AO2 SLP169 T00610050 58002
KBFD 240153Z AUTO 32008KT 10SM CLR 07/04 A3002 RMK AO2 SLP174 T00670039
KBFD 240053Z AUTO 33009KT 10SM CLR 07/03 A3003 RMK AO2 SLP175 T00720033
KBFD 232353Z AUTO 32010KT 10SM CLR 08/03 A3002 RMK AO2 SLP173 T00780033 10144 20078 51004
KBFD 232253Z AUTO 32010KT 10SM CLR 08/03 A3002 RMK AO2 SLP172 T00830028
KBFD 232153Z AUTO 32012KT 10SM CLR 11/02 A3001 RMK AO2 SLP168 T01060022
KBFD 232053Z AUTO 34016G24KT 10SM CLR 12/03 A3001 RMK AO2 SLP165 T01220033 55003
KBFD 231953Z AUTO 33012G20KT 10SM CLR 13/03 A3001 RMK AO2 SLP163 T01330028
KBFD 231853Z AUTO 35013G23KT 10SM CLR 14/03 A3001 RMK AO2 SLP162 T01390033
KBFD 231753Z AUTO 34016G22KT 10SM CLR 13/04 A3002 RMK AO2 SLP168 T01330039 10133 20056 58008
KBFD 231653Z AUTO 35016G23KT 10SM CLR 12/03 A3004 RMK AO2 PK WND 33026/1614 SLP176 T01220028
KBFD 231553Z AUTO 36013G23KT 10SM CLR 10/03 A3006 RMK AO2 PK WND 34027/1516 SLP183 T01000028
KBFD 231453Z AUTO 35014G21KT 10SM CLR 09/03 A3004 RMK AO2 SLP180 T00940033 56006
KBFD 231406Z AUTO 35013KT 10SM FEW010 08/03 A3006 RMK AO2 T00780033
KBFD 231353Z AUTO 35011KT 10SM BKN010 07/03 A3005 RMK AO2 CIG 009V014 SLP186 T00670033
KBFD 231349Z AUTO 35013G20KT 10SM BKN010 07/03 A3005 RMK AO2 CIG 009V014
KBFD 231253Z AUTO 35011KT 10SM OVC009 06/03 A3006 RMK AO2 SLP190 T00560028
KBFD 231153Z AUTO 35010G18KT 10SM OVC009 06/03 A3007 RMK AO2 SLP191 T00560028 10061 20050 53003
KBFD 231053Z AUTO 35012G21KT 10SM OVC009 06/03 A3007 RMK AO2 SLP190 T00560028
KBFD 230953Z AUTO 34008KT 10SM BKN013 05/03 A3006 RMK AO2 SLP189 T00500028
KBFD 230853Z AUTO 35011KT 10SM OVC013 06/03 A3006 RMK AO2 SLP188 T00560028 57005
KBFD 230753Z AUTO 01008G16KT 10SM OVC011 06/03 A3006 RMK AO2 SLP189 T00560028
KBFD 230700Z AUTO VRB06KT 10SM OVC010 06/03 A3007 RMK AO2 CIG 008V012 T00610033
KBFD 230653Z AUTO 36007KT 10SM OVC008 06/03 A3007 RMK AO2 CIG 007V011 SLP191 T00560033
KBFD 230553Z AUTO 35011KT 10SM OVC006 06/04 A3007 RMK AO2 SLP193 T00560039 10056 20044 58016
KBFD 230453Z AUTO 36011G18KT 10SM OVC006 06/04 A3010 RMK AO2 SLP201 T00560039 400720044